Time;durP1;ratioP1;P1;durP2;ratioP2;P2;SDS_P1;SDS_P2;PMS_P1;PMS_P2;Temp;Humidity;BMP_temperature;BMP_pressure;BME280_temperature;BME280_humidity;BME280_pressure;Samples;Min_cycle;Max_cycle;Signal;HPM_P1;HPM_P2
2021/05/24 00:00:24;;;;;;;1.83;0.95;;;;;;;8.90;nan;100456.63;5077569;28;20046;-72
2021/05/24 00:03:33;;;;;;;1.25;0.90;;;;;;;8.83;nan;100461.63;5066614;28;20127;-72
2021/05/24 00:06:03;;;;;;;3.55;1.83;;;;;;;8.70;nan;100458.47;5044432;28;20032;-72
2021/05/24 00:08:29;;;;;;;4.18;2.47;;;;;;;8.63;nan;100452.94;5068931;28;20036;-72
2021/05/24 00:10:54;;;;;;;5.18;4.45;;;;;;;8.57;nan;100442.94;5090286;28;20570;-72
2021/05/24 00:13:25;;;;;;;6.72;4.25;;;;;;;8.54;nan;100437.94;5070578;28;20067;-72
2021/05/24 00:16:16;;;;;;;4.88;3.00;;;;;;;8.54;nan;100429.22;5075940;28;20036;-72
2021/05/24 00:19:06;;;;;;;3.17;2.25;;;;;;;8.48;nan;100426.16;5043762;28;20218;-72
2021/05/24 00:21:33;;;;;;;3.38;2.00;;;;;;;8.44;nan;100426.59;5057769;28;20289;-72
2021/05/24 00:24:16;;;;;;;4.68;3.30;;;;;;;8.40;nan;100426.03;5059038;28;20044;-72
2021/05/24 00:27:06;;;;;;;4.40;2.63;;;;;;;8.37;nan;100425.47;5085906;28;20349;-72
2021/05/24 00:29:39;;;;;;;3.13;1.75;;;;;;;8.35;nan;100422.13;5054099;28;20028;-72
2021/05/24 00:32:05;;;;;;;2.67;1.50;;;;;;;8.27;nan;100420.19;5054701;28;20397;-72
2021/05/24 00:34:57;;;;;;;2.40;1.70;;;;;;;8.26;nan;100415.91;5078108;28;20037;-72
2021/05/24 00:37:30;;;;;;;2.58;1.77;;;;;;;8.23;nan;100406.47;5050395;28;20037;-72
2021/05/24 00:39:55;;;;;;;2.38;2.00;;;;;;;8.20;nan;100404.13;5086858;28;20048;-73
2021/05/24 00:42:44;;;;;;;4.07;2.95;;;;;;;8.17;nan;100399.09;5070116;28;20079;-72
2021/05/24 00:45:13;;;;;;;5.85;4.55;;;;;;;8.15;nan;100400.22;5067925;28;20500;-72
2021/05/24 00:47:42;;;;;;;5.18;4.07;;;;;;;8.10;nan;100400.63;5078119;28;20032;-72
2021/05/24 00:50:20;;;;;;;3.63;2.70;;;;;;;8.19;nan;100397.16;5052152;28;20068;-73
2021/05/24 00:52:57;;;;;;;5.85;3.15;;;;;;;8.16;nan;100392.19;5053808;28;20032;-72
2021/05/24 00:56:10;;;;;;;3.85;2.30;;;;;;;8.14;nan;100394.13;5048027;28;20039;-72
2021/05/24 00:58:37;;;;;;;4.32;2.30;;;;;;;8.15;nan;100400.22;4966036;28;20042;-72
2021/05/24 01:01:38;;;;;;;3.45;2.10;;;;;;;8.16;nan;100397.47;5060040;28;20050;-72
2021/05/24 01:04:15;;;;;;;4.60;2.10;;;;;;;8.15;nan;100406.34;5090348;28;20043;-72
2021/05/24 01:06:42;;;;;;;4.05;2.28;;;;;;;8.11;nan;100406.75;5057920;28;20060;-72
2021/05/24 01:09:08;;;;;;;2.80;1.73;;;;;;;8.11;nan;100402.31;5071110;28;20068;-72
2021/05/24 01:11:39;;;;;;;3.25;1.70;;;;;;;8.07;nan;100395.66;5049101;28;20075;-72
2021/05/24 01:14:33;;;;;;;3.10;1.83;;;;;;;8.09;nan;100399.81;5070562;28;20106;-73
2021/05/24 01:17:06;;;;;;;3.38;1.50;;;;;;;8.10;nan;100387.47;5089078;28;20115;-72
2021/05/24 01:19:52;;;;;;;1.80;1.40;;;;;;;8.11;nan;100386.50;5072711;28;20036;-72
2021/05/24 01:22:26;;;;;;;2.90;1.17;;;;;;;8.11;nan;100383.88;5064364;28;20059;-72
2021/05/24 01:24:53;;;;;;;3.45;1.27;;;;;;;8.20;nan;100382.19;5090841;28;20044;-72
2021/05/24 01:27:23;;;;;;;2.40;1.02;;;;;;;8.27;nan;100389.41;5072256;28;20047;-72
2021/05/24 01:29:50;;;;;;;2.38;1.20;;;;;;;8.28;nan;100388.44;5071808;28;20039;-72
2021/05/24 01:32:19;;;;;;;2.05;0.90;;;;;;;8.48;nan;100385.78;5037355;28;20068;-72
2021/05/24 01:34:55;;;;;;;2.42;1.00;;;;;;;8.63;nan;100371.22;5075916;28;20032;-72
2021/05/24 01:37:21;;;;;;;1.90;0.90;;;;;;;8.75;nan;100366.59;5061835;28;20439;-72
2021/05/24 01:39:47;;;;;;;3.05;0.93;;;;;;;8.75;nan;100369.25;5091525;28;20269;-72
2021/05/24 01:42:14;;;;;;;1.88;0.90;;;;;;;8.68;nan;100363.72;5068570;28;20051;-72
2021/05/24 01:44:42;;;;;;;1.33;1.10;;;;;;;8.54;nan;100363.34;5066858;28;20496;-72
2021/05/24 01:47:09;;;;;;;1.67;0.90;;;;;;;8.50;nan;100365.41;5052083;28;20052;-72
2021/05/24 01:49:47;;;;;;;2.13;0.90;;;;;;;8.36;nan;100361.38;5052160;28;20029;-72
2021/05/24 01:52:20;;;;;;;1.20;0.80;;;;;;;8.35;nan;100362.38;5076962;28;20051;-73
2021/05/24 01:54:47;;;;;;;1.42;0.80;;;;;;;8.28;nan;100351.56;5076299;28;20073;-72
2021/05/24 01:57:15;;;;;;;2.70;0.80;;;;;;;8.25;nan;100348.38;5053358;28;20129;-71
2021/05/24 01:59:46;;;;;;;1.67;0.70;;;;;;;8.20;nan;100343.53;5056111;28;20099;-71
2021/05/24 02:02:12;;;;;;;;;;;;;;;8.24;nan;100338.81;5068739;28;20036;-72
2021/05/24 02:04:38;;;;;;;2.00;0.80;;;;;;;8.22;nan;100338.97;5089781;28;20387;-71
2021/05/24 02:07:29;;;;;;;3.00;0.90;;;;;;;8.09;nan;100341.88;5057787;28;20350;-71
2021/05/24 02:10:25;;;;;;;1.83;0.80;;;;;;;8.03;nan;100341.59;5066326;28;20123;-71
2021/05/24 02:12:53;;;;;;;2.05;0.80;;;;;;;8.01;nan;100340.94;5047349;28;20064;-72
2021/05/24 02:15:40;;;;;;;1.40;0.80;;;;;;;7.94;nan;100345.91;5080061;28;20040;-71
2021/05/24 02:18:06;;;;;;;1.40;0.90;;;;;;;7.96;nan;100333.44;5068154;28;20123;-71
2021/05/24 02:20:36;;;;;;;3.15;0.95;;;;;;;7.98;nan;100333.28;5088599;28;20501;-71
2021/05/24 02:23:11;;;;;;;1.73;0.80;;;;;;;8.01;nan;100343.56;5072306;28;20093;-71
2021/05/24 02:25:40;;;;;;;0.95;0.70;;;;;;;7.99;nan;100334.97;5064064;28;20516;-71
2021/05/24 02:28:07;;;;;;;1.40;0.90;;;;;;;7.98;nan;100328.03;5050545;28;20075;-71
2021/05/24 02:30:43;;;;;;;1.20;0.80;;;;;;;8.02;nan;100332.06;5047868;28;20043;-71
2021/05/24 02:33:09;;;;;;;2.47;1.02;;;;;;;8.00;nan;100323.44;5063279;28;20083;-71
2021/05/24 02:35:37;;;;;;;3.35;0.95;;;;;;;8.02;nan;100326.78;5073147;28;20400;-71
2021/05/24 02:38:03;;;;;;;1.75;0.77;;;;;;;7.99;nan;100324.44;5073785;28;20051;-72
2021/05/24 02:40:31;;;;;;;1.90;0.77;;;;;;;8.04;nan;100324.84;5074438;28;20089;-71
2021/05/24 02:43:03;;;;;;;1.33;0.80;;;;;;;8.01;nan;100309.34;5066685;28;20036;-71
2021/05/24 02:45:33;;;;;;;2.30;1.23;;;;;;;7.91;nan;100303.22;5062451;28;20377;-71
2021/05/24 02:48:10;;;;;;;1.40;0.80;;;;;;;7.86;nan;100301.00;5052563;28;20546;-71
2021/05/24 02:50:48;;;;;;;1.83;0.98;;;;;;;7.82;nan;100300.47;5044094;28;20569;-71
2021/05/24 02:53:26;;;;;;;1.75;0.90;;;;;;;7.80;nan;100302.41;5075402;28;20127;-71
2021/05/24 02:55:52;;;;;;;2.10;0.98;;;;;;;7.73;nan;100306.56;5065029;28;20071;-71
2021/05/24 02:58:20;;;;;;;2.67;1.17;;;;;;;7.63;nan;100308.38;5052865;28;20381;-71
2021/05/24 03:00:50;;;;;;;1.42;1.00;;;;;;;7.59;nan;100306.97;5053829;28;20044;-71
2021/05/24 03:03:24;;;;;;;1.52;1.00;;;;;;;7.55;nan;100308.22;5068936;28;20072;-71
2021/05/24 03:05:57;;;;;;;1.55;1.17;;;;;;;7.51;nan;100306.81;5057037;28;20136;-71
2021/05/24 03:09:00;;;;;;;2.88;1.00;;;;;;;7.50;nan;100297.28;5070893;28;20066;-71
2021/05/24 03:11:29;;;;;;;1.85;0.90;;;;;;;7.46;nan;100299.38;5067657;28;20044;-71
2021/05/24 03:13:59;;;;;;;1.67;1.10;;;;;;;7.55;nan;100305.59;5073239;28;20044;-71
2021/05/24 03:16:27;;;;;;;3.17;1.13;;;;;;;7.58;nan;100310.56;5061233;28;20421;-72
2021/05/24 03:19:04;;;;;;;1.48;1.05;;;;;;;7.55;nan;100302.94;5074597;28;20040;-71
2021/05/24 03:21:31;;;;;;;2.40;1.10;;;;;;;7.56;nan;100300.19;5060478;28;20075;-71
2021/05/24 03:24:07;;;;;;;2.33;1.00;;;;;;;7.53;nan;100300.47;5058691;28;20064;-71
2021/05/24 03:26:33;;;;;;;1.98;0.95;;;;;;;7.51;nan;100291.88;5066789;28;20558;-71
2021/05/24 03:29:04;;;;;;;2.35;1.10;;;;;;;7.50;nan;100302.53;5051268;28;20044;-72
2021/05/24 03:31:31;;;;;;;2.63;1.08;;;;;;;7.46;nan;100299.38;5053528;28;20413;-71
2021/05/24 03:33:58;;;;;;;2.42;1.20;;;;;;;7.50;nan;100292.84;5097956;28;20039;-71
2021/05/24 03:36:26;;;;;;;2.03;1.15;;;;;;;7.51;nan;100296.28;5061384;28;20032;-71
2021/05/24 03:38:56;;;;;;;1.60;1.00;;;;;;;7.48;nan;100302.66;5063811;28;20044;-71
2021/05/24 03:41:32;;;;;;;1.60;1.00;;;;;;;7.46;nan;100296.75;5063467;28;20535;-72
2021/05/24 03:44:01;;;;;;;2.17;1.20;;;;;;;7.50;nan;100292.00;5072630;28;20660;-71
2021/05/24 03:46:26;;;;;;;2.22;1.00;;;;;;;7.44;nan;100304.75;5092899;28;20043;-71
2021/05/24 03:48:52;;;;;;;2.10;1.20;;;;;;;7.39;nan;100300.88;5092397;28;20044;-70
2021/05/24 03:51:17;;;;;;;1.58;1.15;;;;;;;7.35;nan;100296.84;5082631;28;20412;-71
2021/05/24 03:53:42;;;;;;;2.75;1.35;;;;;;;7.30;nan;100304.31;5072536;28;20048;-70
2021/05/24 03:56:08;;;;;;;2.50;1.50;;;;;;;7.27;nan;100309.84;5071821;28;20497;-72
2021/05/24 03:58:33;;;;;;;2.50;1.40;;;;;;;7.28;nan;100303.63;5073197;28;20071;-71
2021/05/24 04:00:58;;;;;;;3.08;1.30;;;;;;;7.27;nan;100315.09;5060507;28;20067;-71
2021/05/24 04:03:24;;;;;;;2.20;1.23;;;;;;;7.26;nan;100301.13;5057951;28;20037;-71
2021/05/24 04:05:57;;;;;;;2.42;1.40;;;;;;;7.35;nan;100297.69;5073168;28;20063;-70
2021/05/24 04:08:22;;;;;;;1.58;1.00;;;;;;;7.44;nan;100301.31;5071162;28;20081;-71
2021/05/24 04:10:55;;;;;;;2.67;1.30;;;;;;;7.48;nan;100301.84;5077126;28;20039;-71
2021/05/24 04:13:20;;;;;;;1.55;1.10;;;;;;;7.52;nan;100292.72;5092419;28;20039;-71
2021/05/24 04:15:49;;;;;;;2.83;1.40;;;;;;;7.58;nan;100290.38;5073122;28;20028;-71
2021/05/24 04:18:16;;;;;;;2.65;1.20;;;;;;;7.66;nan;100284.41;5072321;28;20021;-71
2021/05/24 04:20:44;;;;;;;2.33;1.40;;;;;;;7.75;nan;100286.22;5091351;28;20662;-71
2021/05/24 04:23:09;;;;;;;1.75;1.10;;;;;;;7.80;nan;100281.34;5082474;28;20036;-71
2021/05/24 04:25:34;;;;;;;2.63;1.55;;;;;;;7.93;nan;100275.78;5090918;28;20032;-71
2021/05/24 04:28:00;;;;;;;2.53;1.23;;;;;;;8.01;nan;100270.66;5073500;28;20040;-71
2021/05/24 04:30:25;;;;;;;1.85;1.40;;;;;;;8.09;nan;100268.13;5066432;28;20036;-71
2021/05/24 04:32:50;;;;;;;3.13;1.20;;;;;;;8.11;nan;100265.38;5071578;28;20039;-71
2021/05/24 04:35:17;;;;;;;2.70;1.50;;;;;;;8.09;nan;100269.94;5063047;28;20039;-71
2021/05/24 04:37:42;;;;;;;4.13;1.70;;;;;;;8.06;nan;100264.97;5090605;28;20028;-71
2021/05/24 04:40:08;;;;;;;2.83;1.67;;;;;;;8.07;nan;100256.91;5090347;28;20058;-71
2021/05/24 04:42:33;;;;;;;2.28;1.50;;;;;;;8.09;nan;100269.94;5067004;28;20036;-71
2021/05/24 04:44:59;;;;;;;3.33;1.70;;;;;;;8.07;nan;100261.34;5070083;28;20040;-71
2021/05/24 04:47:24;;;;;;;1.85;1.30;;;;;;;8.17;nan;100256.06;5069915;28;20035;-71
2021/05/24 04:49:50;;;;;;;2.90;1.65;;;;;;;8.19;nan;100240.94;5063273;28;20029;-71
2021/05/24 04:52:17;;;;;;;2.35;1.55;;;;;;;8.27;nan;100244.53;5058950;28;20037;-71
2021/05/24 04:54:43;;;;;;;2.45;1.60;;;;;;;8.32;nan;100251.16;5032389;28;20024;-71
2021/05/24 04:57:08;;;;;;;2.20;1.67;;;;;;;8.35;nan;100253.53;5041683;28;20032;-71
2021/05/24 04:59:34;;;;;;;2.67;1.73;;;;;;;8.44;nan;100258.78;5070401;28;20025;-71
2021/05/24 05:01:59;;;;;;;2.35;1.40;;;;;;;8.59;nan;100248.59;5044468;28;20036;-71
2021/05/24 05:04:24;;;;;;;2.10;1.40;;;;;;;8.65;nan;100245.38;5050658;28;20036;-71
2021/05/24 05:06:50;;;;;;;2.53;1.45;;;;;;;8.75;nan;100245.34;5066937;28;20445;-71
2021/05/24 05:09:15;;;;;;;2.10;1.40;;;;;;;8.89;nan;100246.63;5070197;28;20051;-71
2021/05/24 05:11:40;;;;;;;2.40;1.50;;;;;;;8.98;nan;100253.66;5069249;28;20647;-71
2021/05/24 05:14:05;;;;;;;2.65;1.42;;;;;;;9.11;nan;100245.41;5070486;28;20032;-72
2021/05/24 05:16:31;;;;;;;3.50;1.70;;;;;;;9.17;nan;100250.06;5074977;28;20047;-71
2021/05/24 05:18:57;;;;;;;2.40;1.50;;;;;;;9.19;nan;100247.28;5090455;28;20056;-71
2021/05/24 05:21:22;;;;;;;2.15;1.45;;;;;;;9.23;nan;100259.22;5078622;28;20037;-71
2021/05/24 05:23:47;;;;;;;1.80;1.20;;;;;;;9.31;nan;100246.09;5070364;28;20037;-71
2021/05/24 05:26:13;;;;;;;3.38;1.88;;;;;;;9.45;nan;100250.84;5083838;28;20318;-71
2021/05/24 05:28:39;;;;;;;3.22;1.73;;;;;;;9.54;nan;100244.66;5066153;28;20409;-71
2021/05/24 05:31:05;;;;;;;2.35;1.60;;;;;;;9.64;nan;100241.09;5089837;28;20446;-71
2021/05/24 05:33:31;;;;;;;4.22;2.22;;;;;;;9.73;nan;100240.19;5088087;28;20450;-71
2021/05/24 05:35:57;;;;;;;4.65;1.77;;;;;;;9.75;nan;100249.59;5086438;28;20115;-71
2021/05/24 05:38:24;;;;;;;2.45;1.25;;;;;;;9.90;nan;100257.81;5087636;28;20040;-72
2021/05/24 05:40:51;;;;;;;1.60;1.17;;;;;;;10.01;nan;100254.09;5078102;28;20037;-71
2021/05/24 05:43:17;;;;;;;1.75;1.05;;;;;;;10.13;nan;100262.56;5068993;28;20033;-71
2021/05/24 05:45:42;;;;;;;2.05;0.98;;;;;;;10.18;nan;100265.59;5064890;28;20039;-71
2021/05/24 05:48:09;;;;;;;2.47;1.45;;;;;;;10.19;nan;100260.13;5088788;28;20035;-72
2021/05/24 05:50:34;;;;;;;2.88;1.48;;;;;;;10.26;nan;100281.47;5089983;28;20062;-71
2021/05/24 05:53:00;;;;;;;2.65;1.40;;;;;;;10.41;nan;100266.72;5055460;28;20064;-71
2021/05/24 05:55:25;;;;;;;4.85;1.60;;;;;;;10.59;nan;100274.59;5072223;28;20055;-71
2021/05/24 05:57:51;;;;;;;5.68;2.47;;;;;;;10.44;nan;100275.34;5088842;28;20553;-71
2021/05/24 06:00:16;;;;;;;3.83;1.80;;;;;;;10.45;nan;100277.00;5070815;28;20054;-72
2021/05/24 06:02:42;;;;;;;4.38;1.60;;;;;;;10.52;nan;100273.56;5088907;28;20028;-71
2021/05/24 06:05:08;;;;;;;3.13;1.80;;;;;;;10.56;nan;100264.34;5071892;28;20088;-71
2021/05/24 06:07:33;;;;;;;2.50;1.27;;;;;;;10.62;nan;100265.53;5057706;28;20199;-71
2021/05/24 06:09:58;;;;;;;1.98;1.05;;;;;;;10.79;nan;100256.66;5050772;28;20078;-71
2021/05/24 06:12:24;;;;;;;2.53;1.58;;;;;;;11.03;nan;100260.38;5071319;28;20492;-71
2021/05/24 06:14:49;;;;;;;3.42;1.65;;;;;;;11.17;nan;100250.97;5088861;28;20119;-71
2021/05/24 06:17:14;;;;;;;2.80;1.40;;;;;;;11.17;nan;100254.44;5080026;28;20029;-72
2021/05/24 06:19:40;;;;;;;2.95;1.60;;;;;;;11.43;nan;100249.03;5069346;28;20528;-71
2021/05/24 06:22:05;;;;;;;1.98;1.27;;;;;;;11.44;nan;100252.50;5081686;28;20496;-71
2021/05/24 06:24:30;;;;;;;2.28;1.17;;;;;;;11.61;nan;100238.31;5089637;28;20400;-71
2021/05/24 06:26:55;;;;;;;2.28;1.20;;;;;;;11.65;nan;100244.06;5088421;28;20036;-71
2021/05/24 06:29:25;;;;;;;4.53;1.80;;;;;;;11.86;nan;100243.56;5071011;28;20185;-71
2021/05/24 06:31:52;;;;;;;2.25;1.40;;;;;;;11.82;nan;100240.44;5063461;28;20120;-71
2021/05/24 06:34:18;;;;;;;2.72;1.25;;;;;;;11.98;nan;100239.63;5086099;28;20066;-72
2021/05/24 06:36:43;;;;;;;4.03;1.48;;;;;;;11.99;nan;100237.78;5082431;28;20029;-72
2021/05/24 06:39:09;;;;;;;2.97;1.50;;;;;;;11.94;nan;100238.31;5070075;28;20524;-72
2021/05/24 06:41:34;;;;;;;3.05;1.58;;;;;;;11.90;nan;100243.09;5076440;28;20622;-71
2021/05/24 06:44:00;;;;;;;5.35;1.85;;;;;;;11.82;nan;100232.50;5041825;28;20029;-71
2021/05/24 06:46:26;;;;;;;3.75;1.83;;;;;;;11.86;nan;100228.50;5057197;28;20509;-71
2021/05/24 06:48:51;;;;;;;3.22;1.52;;;;;;;12.03;nan;100224.03;5062310;28;20041;-71
2021/05/24 06:51:17;;;;;;;3.45;1.73;;;;;;;12.01;nan;100227.84;5066070;28;20090;-72
2021/05/24 06:53:42;;;;;;;3.75;1.70;;;;;;;12.07;nan;100224.53;5069157;28;20447;-70
2021/05/24 06:56:07;;;;;;;3.15;1.60;;;;;;;12.19;nan;100227.66;5068536;28;20554;-72
2021/05/24 06:58:33;;;;;;;3.25;1.73;;;;;;;12.35;nan;100224.13;5089409;28;20036;-71
2021/05/24 07:00:58;;;;;;;4.20;2.13;;;;;;;12.62;nan;100220.22;5078749;28;20048;-71
2021/05/24 07:03:23;;;;;;;4.32;1.70;;;;;;;12.75;nan;100229.28;5069244;28;20053;-71
2021/05/24 07:05:49;;;;;;;3.72;1.85;;;;;;;12.91;nan;100227.53;5088610;28;20089;-71
2021/05/24 07:08:14;;;;;;;3.28;1.67;;;;;;;12.73;nan;100227.81;5086320;28;20052;-71
2021/05/24 07:10:39;;;;;;;6.72;2.33;;;;;;;12.87;nan;100232.38;5087577;28;20028;-71
2021/05/24 07:13:04;;;;;;;3.67;1.50;;;;;;;12.96;nan;100239.28;5086129;28;20046;-71
2021/05/24 07:15:30;;;;;;;3.47;1.38;;;;;;;13.05;nan;100237.41;5087609;28;20032;-71
2021/05/24 07:17:55;;;;;;;4.20;2.00;;;;;;;13.35;nan;100233.09;5081291;28;20029;-71
2021/05/24 07:20:21;;;;;;;3.97;1.50;;;;;;;13.39;nan;100228.25;5069899;28;20024;-71
2021/05/24 07:22:47;;;;;;;2.97;1.27;;;;;;;13.36;nan;100228.63;5085608;28;20028;-71
2021/05/24 07:25:13;;;;;;;3.90;1.55;;;;;;;13.70;nan;100225.50;5077663;28;20044;-71
2021/05/24 07:27:38;;;;;;;2.70;1.27;;;;;;;14.39;nan;100225.31;5090489;28;20040;-71
2021/05/24 07:30:04;;;;;;;3.60;1.13;;;;;;;14.48;nan;100227.88;5091781;28;20496;-71
2021/05/24 07:32:29;;;;;;;3.22;1.30;;;;;;;15.03;nan;100235.34;5079333;28;20040;-70
2021/05/24 07:34:55;;;;;;;2.97;1.08;;;;;;;15.74;nan;100236.47;5069614;28;20401;-71
2021/05/24 07:37:20;;;;;;;2.90;1.10;;;;;;;16.40;nan;100217.41;5075003;28;20075;-71
2021/05/24 07:39:45;;;;;;;2.88;0.90;;;;;;;17.26;nan;100227.63;5086190;28;20039;-71
2021/05/24 07:42:11;;;;;;;2.42;0.82;;;;;;;18.02;nan;100221.91;5054159;28;20471;-72
2021/05/24 07:44:36;;;;;;;3.33;1.00;;;;;;;17.90;nan;100229.75;5074205;28;20052;-72
2021/05/24 07:47:03;;;;;;;1.77;0.85;;;;;;;18.48;nan;100225.50;5088299;28;20028;-71
2021/05/24 07:49:29;;;;;;;1.38;0.85;;;;;;;18.90;nan;100232.13;5056833;28;20491;-72
2021/05/24 07:51:54;;;;;;;1.73;0.77;;;;;;;19.49;nan;100227.47;5088777;28;20043;-71
2021/05/24 07:54:20;;;;;;;1.17;0.68;;;;;;;19.79;nan;100224.16;5090166;28;20044;-71
2021/05/24 07:56:46;;;;;;;2.10;1.00;;;;;;;19.90;nan;100223.44;5072276;28;20028;-71
2021/05/24 07:59:13;;;;;;;3.17;0.90;;;;;;;19.70;nan;100215.56;5083442;28;20032;-71
2021/05/24 08:01:38;;;;;;;3.45;1.00;;;;;;;19.60;nan;100213.34;5076835;28;20175;-71
2021/05/24 08:04:04;;;;;;;3.72;0.90;;;;;;;19.84;nan;100218.97;5050799;28;20062;-71
2021/05/24 08:06:30;;;;;;;1.92;0.90;;;;;;;19.80;nan;100215.06;5077669;28;20064;-71
2021/05/24 08:08:55;;;;;;;3.25;0.80;;;;;;;20.69;nan;100210.22;5072507;28;20036;-71
2021/05/24 08:11:21;;;;;;;1.55;0.80;;;;;;;20.77;nan;100201.84;5084237;28;20077;-70
2021/05/24 08:13:46;;;;;;;2.95;0.70;;;;;;;21.37;nan;100201.81;5092087;28;20470;-71
2021/05/24 08:16:14;;;;;;;1.05;0.57;;;;;;;21.66;nan;100207.38;5071946;28;20119;-72
2021/05/24 08:18:41;;;;;;;1.65;0.63;;;;;;;21.63;nan;100210.53;5061743;28;20032;-71
2021/05/24 08:21:08;;;;;;;1.42;0.70;;;;;;;21.79;nan;100209.84;5058240;28;20494;-71
2021/05/24 08:23:33;;;;;;;2.22;0.70;;;;;;;21.88;nan;100201.41;5054463;28;20364;-71
2021/05/24 08:26:00;;;;;;;2.00;0.68;;;;;;;23.03;nan;100195.22;5043898;28;20037;-71
2021/05/24 08:28:26;;;;;;;2.03;1.08;;;;;;;23.48;nan;100201.66;5052639;28;20211;-70
2021/05/24 08:30:52;;;;;;;1.02;0.70;;;;;;;23.54;nan;100193.38;5063723;28;20536;-72
2021/05/24 08:33:17;;;;;;;1.73;0.50;;;;;;;23.57;nan;100191.25;5061334;28;20078;-72
2021/05/24 08:35:42;;;;;;;1.25;0.77;;;;;;;24.07;nan;100180.41;5055491;28;20036;-72
2021/05/24 08:38:08;;;;;;;1.10;0.57;;;;;;;25.09;nan;100182.69;5045700;28;20048;-72
2021/05/24 08:40:33;;;;;;;0.98;0.45;;;;;;;25.30;nan;100176.41;5054674;28;20772;-72
2021/05/24 08:43:00;;;;;;;1.33;0.60;;;;;;;24.68;nan;100177.69;5067584;28;20492;-72
2021/05/24 08:45:29;;;;;;;1.67;0.47;;;;;;;24.59;nan;100174.59;5066983;28;20528;-72
2021/05/24 08:47:54;;;;;;;1.48;0.50;;;;;;;25.43;nan;100167.88;5048774;28;20497;-72
2021/05/24 08:50:20;;;;;;;1.15;0.60;;;;;;;25.37;nan;100165.38;5070541;28;20043;-72
2021/05/24 08:52:45;;;;;;;0.90;0.50;;;;;;;25.84;nan;100162.72;5048321;28;20413;-72
2021/05/24 08:55:12;;;;;;;2.15;0.57;;;;;;;26.20;nan;100152.09;5063758;28;20040;-72
2021/05/24 08:57:42;;;;;;;1.20;0.65;;;;;;;26.18;nan;100148.81;5062762;28;20368;-71
2021/05/24 09:00:13;;;;;;;1.52;0.63;;;;;;;26.36;nan;100150.25;5051148;28;20112;-71
2021/05/24 09:02:40;;;;;;;0.52;0.45;;;;;;;26.87;nan;100138.75;5056150;28;20568;-71
2021/05/24 09:05:09;;;;;;;1.67;0.77;;;;;;;26.81;nan;100132.47;5052600;28;20060;-72
2021/05/24 09:07:55;;;;;;;1.80;0.50;;;;;;;26.80;nan;100147.16;5043522;28;20046;-72
2021/05/24 09:10:23;;;;;;;2.22;0.50;;;;;;;25.91;nan;100137.31;5050701;28;20059;-71
2021/05/24 09:12:49;;;;;;;1.30;0.60;;;;;;;25.49;nan;100130.81;5058184;28;20565;-72
2021/05/24 09:15:16;;;;;;;2.13;0.52;;;;;;;24.87;nan;100134.88;5079968;28;20412;-72
2021/05/24 09:17:45;;;;;;;1.83;0.45;;;;;;;25.02;nan;100126.88;5090709;28;20031;-72
2021/05/24 09:20:20;;;;;;;0.68;0.40;;;;;;;24.63;nan;100111.94;5089558;28;20036;-71
2021/05/24 09:23:23;;;;;;;1.73;0.65;;;;;;;24.95;nan;100098.44;5083349;28;20040;-71
2021/05/24 09:26:03;;;;;;;1.23;0.50;;;;;;;24.17;nan;100104.09;5070602;28;20128;-70
2021/05/24 09:28:46;;;;;;;1.98;0.60;;;;;;;24.06;nan;100097.75;5075953;28;20044;-71
2021/05/24 09:31:17;;;;;;;1.10;0.55;;;;;;;23.49;nan;100106.13;5072100;28;20032;-71
2021/05/24 09:33:46;;;;;;;1.15;0.63;;;;;;;23.88;nan;100093.50;5088467;28;20039;-70
2021/05/24 09:36:13;;;;;;;1.08;0.50;;;;;;;23.65;nan;100090.97;5081971;28;20089;-70
2021/05/24 09:38:49;;;;;;;1.05;0.55;;;;;;;23.72;nan;100088.91;5071339;28;20074;-72
2021/05/24 09:41:17;;;;;;;2.42;0.40;;;;;;;22.88;nan;100087.06;5083405;28;20043;-71
2021/05/24 09:43:53;;;;;;;1.35;0.60;;;;;;;23.16;nan;100083.50;5053420;28;20501;-70
2021/05/24 09:46:28;;;;;;;0.68;0.50;;;;;;;23.34;nan;100078.94;5074226;28;20055;-71
2021/05/24 09:49:04;;;;;;;1.45;0.50;;;;;;;23.28;nan;100078.03;5079284;28;20173;-71
2021/05/24 09:51:31;;;;;;;1.75;0.50;;;;;;;23.14;nan;100068.63;5089438;28;20423;-71
2021/05/24 09:54:04;;;;;;;1.58;0.70;;;;;;;23.28;nan;100072.63;5080719;28;20068;-70
2021/05/24 09:56:32;;;;;;;2.83;0.60;;;;;;;23.06;nan;100070.69;5085838;28;20032;-71
2021/05/24 09:59:07;;;;;;;1.50;0.60;;;;;;;23.11;nan;100073.44;5072485;28;20377;-71
2021/05/24 10:01:45;;;;;;;0.95;0.68;;;;;;;23.11;nan;100069.94;5058076;28;20037;-71
2021/05/24 10:04:16;;;;;;;2.20;0.60;;;;;;;22.52;nan;100064.88;5052727;28;20063;-72
2021/05/24 10:06:42;;;;;;;2.35;0.50;;;;;;;22.79;nan;100065.09;5083200;28;20032;-71
2021/05/24 10:09:11;;;;;;;1.58;0.50;;;;;;;22.72;nan;100052.84;5074255;28;20028;-72
2021/05/24 10:11:38;;;;;;;2.10;0.63;;;;;;;22.91;nan;100043.44;5075696;28;20587;-71
2021/05/24 10:14:05;;;;;;;1.35;0.65;;;;;;;22.90;nan;100039.91;5072627;28;20036;-72
2021/05/24 10:16:34;;;;;;;2.08;0.75;;;;;;;22.33;nan;100031.13;5083004;28;20036;-72
2021/05/24 10:19:00;;;;;;;3.00;0.90;;;;;;;22.78;nan;100023.00;5091703;28;20028;-72
2021/05/24 10:21:26;;;;;;;2.08;0.60;;;;;;;22.81;nan;100027.94;5082589;28;20057;-71
2021/05/24 10:23:52;;;;;;;0.82;0.40;;;;;;;22.98;nan;100027.97;5090647;28;20381;-71
2021/05/24 10:26:19;;;;;;;1.75;0.57;;;;;;;22.37;nan;100024.19;5079940;28;20041;-71
2021/05/24 10:28:46;;;;;;;1.55;0.60;;;;;;;22.53;nan;100011.81;5079486;28;20115;-71
2021/05/24 10:31:20;;;;;;;0.75;0.50;;;;;;;22.86;nan;100011.84;5083139;28;20047;-70
2021/05/24 10:33:47;;;;;;;1.05;0.60;;;;;;;22.86;nan;100008.31;5089877;28;20040;-70
2021/05/24 10:36:20;;;;;;;1.25;0.70;;;;;;;22.92;nan;100010.03;5079330;28;20066;-70
2021/05/24 10:39:11;;;;;;;1.30;0.55;;;;;;;22.80;nan;100007.41;5070894;28;20039;-71
2021/05/24 10:41:49;;;;;;;1.95;0.60;;;;;;;22.66;nan;100009.59;5079605;28;20132;-71
2021/05/24 10:44:24;;;;;;;1.90;0.40;;;;;;;22.35;nan;99999.38;5050850;28;20115;-71
2021/05/24 10:46:51;;;;;;;1.35;0.60;;;;;;;22.43;nan;99997.09;5085371;28;20456;-71
2021/05/24 10:49:22;;;;;;;1.48;0.50;;;;;;;22.55;nan;99998.91;5089644;28;20413;-71
2021/05/24 10:51:51;;;;;;;1.98;0.60;;;;;;;22.43;nan;99999.81;5079191;28;20462;-71
2021/05/24 10:54:24;;;;;;;1.70;0.60;;;;;;;22.25;nan;100000.81;5073249;28;20568;-70
2021/05/24 10:56:59;;;;;;;1.10;0.50;;;;;;;21.96;nan;99989.22;5079221;28;20443;-70
2021/05/24 10:59:39;;;;;;;1.38;0.47;;;;;;;21.97;nan;99990.84;5062130;28;20032;-70
2021/05/24 11:02:08;;;;;;;0.90;0.50;;;;;;;21.82;nan;99975.22;5081533;28;20039;-72
2021/05/24 11:05:07;;;;;;;1.33;0.50;;;;;;;22.01;nan;99970.47;5073225;28;20064;-71
2021/05/24 11:07:44;;;;;;;1.38;0.55;;;;;;;21.98;nan;99970.94;5064394;28;20048;-70
2021/05/24 11:10:12;;;;;;;1.60;0.55;;;;;;;22.07;nan;99965.97;5070868;28;20044;-69
2021/05/24 11:12:37;;;;;;;1.40;0.50;;;;;;;22.13;nan;99965.03;5076640;28;20028;-70
2021/05/24 11:15:07;;;;;;;1.83;0.60;;;;;;;22.22;nan;99960.09;5082006;28;20082;-70
2021/05/24 11:18:00;;;;;;;1.17;0.40;;;;;;;22.11;nan;99950.97;5072091;28;20504;-71
2021/05/24 11:20:34;;;;;;;1.08;0.60;;;;;;;22.32;nan;99948.69;5074169;28;20054;-71
2021/05/24 11:23:28;;;;;;;1.40;0.40;;;;;;;22.53;nan;99949.84;5083255;28;20051;-70
2021/05/24 11:26:15;;;;;;;1.20;0.75;;;;;;;22.50;nan;99937.69;5072364;28;20397;-71
2021/05/24 11:29:03;;;;;;;0.90;0.50;;;;;;;22.36;nan;99936.38;5085020;28;20043;-70
2021/05/24 11:31:35;;;;;;;2.55;0.45;;;;;;;22.43;nan;99932.44;5075405;28;20033;-70
2021/05/24 11:34:02;;;;;;;0.75;0.50;;;;;;;22.30;nan;99923.88;5083905;28;20035;-69
2021/05/24 11:36:27;;;;;;;1.00;0.40;;;;;;;22.33;nan;99921.50;5085174;28;20040;-71
2021/05/24 11:39:08;;;;;;;1.90;0.57;;;;;;;22.08;nan;99912.97;5093150;28;20036;-71
2021/05/24 11:41:42;;;;;;;4.65;0.50;;;;;;;22.08;nan;99910.28;5089114;28;20054;-71
2021/05/24 11:44:08;;;;;;;0.90;0.50;;;;;;;22.09;nan;99922.66;5072212;28;20335;-71
2021/05/24 11:46:43;;;;;;;2.10;0.50;;;;;;;21.91;nan;99902.16;5074589;28;20086;-71
2021/05/24 11:49:09;;;;;;;2.45;0.90;;;;;;;21.95;nan;99896.06;5073033;28;20044;-71
2021/05/24 11:51:35;;;;;;;1.27;0.60;;;;;;;22.00;nan;99892.63;5070668;28;20033;-71
2021/05/24 11:54:06;;;;;;;1.65;0.50;;;;;;;22.16;nan;99896.41;5072148;28;20063;-73
2021/05/24 11:56:51;;;;;;;;;;;;;;;22.01;nan;99895.06;5071490;28;20032;-71
2021/05/24 11:59:19;;;;;;;1.33;0.50;;;;;;;22.13;nan;99900.41;5052922;28;19916;-72